createdAt,value
2017-05-10T17:54:33.906Z,18368
2017-05-10T17:55:02.164Z,18528
2017-05-10T17:55:29.965Z,18784
2017-05-10T17:55:58.187Z,19168
2017-05-10T17:56:26.430Z,19040
2017-05-10T17:56:54.674Z,19104
2017-05-10T17:57:22.933Z,19232
2017-05-10T17:57:51.295Z,19136
2017-05-10T17:58:19.548Z,26336
2017-05-10T17:58:47.914Z,22144
2017-05-10T17:59:16.169Z,25664
2017-05-10T17:59:44.392Z,21792
2017-05-10T18:00:12.651Z,20384
2017-05-10T18:00:40.900Z,20000
2017-05-10T18:01:09.162Z,18848
2017-05-10T18:01:37.335Z,18560
2017-05-10T18:02:05.402Z,18336
2017-05-10T18:02:33.667Z,18240
2017-05-10T18:03:01.980Z,18272
2017-05-10T18:03:30.424Z,18560
2017-05-10T18:04:01.243Z,18240
2017-05-10T18:04:40.039Z,18112
2017-05-10T18:05:20.119Z,17920
2017-05-10T18:05:49.156Z,17728
2017-05-10T18:06:17.318Z,17728
2017-05-10T18:06:45.586Z,17632
2017-05-10T18:07:13.867Z,17568
2017-05-10T18:07:42.205Z,17504
2017-05-10T18:08:10.487Z,17472
2017-05-10T18:08:38.703Z,17312
2017-05-10T18:09:06.796Z,17024
2017-05-10T18:09:34.961Z,17152
2017-05-10T18:10:03.332Z,16416
2017-05-10T18:10:31.570Z,16092
2017-05-10T18:11:00.070Z,15804
2017-05-10T18:11:28.302Z,15560
2017-05-10T18:11:56.444Z,15356
2017-05-10T18:12:24.720Z,15240
2017-05-10T18:12:52.913Z,15200
2017-05-10T18:13:21.280Z,15144
2017-05-10T18:13:49.503Z,15132
2017-05-10T18:14:17.797Z,15136
2017-05-10T18:14:46.433Z,15144
2017-05-10T18:15:14.761Z,15132
2017-05-10T18:15:43.007Z,15096
2017-05-10T18:16:11.186Z,14932
2017-05-10T18:16:39.373Z,14340
2017-05-10T18:17:07.642Z,13832
2017-05-10T18:17:35.696Z,13732
2017-05-10T18:18:03.963Z,13780
2017-05-10T18:18:32.113Z,13808
2017-05-10T18:19:00.272Z,13844
2017-05-10T18:19:28.364Z,14024
2017-05-10T18:19:56.611Z,14212
2017-05-10T18:20:24.890Z,14340
2017-05-10T18:20:53.017Z,14232
2017-05-10T18:21:21.373Z,14040
2017-05-10T18:21:49.728Z,13564
2017-05-10T18:22:17.809Z,13088
2017-05-10T18:22:46.151Z,13536
2017-05-10T18:23:14.404Z,14716
2017-05-10T18:23:42.686Z,15368
2017-05-10T18:24:11.164Z,15580
2017-05-10T18:24:46.346Z,15536
2017-05-10T18:25:15.196Z,15280
2017-05-10T18:25:43.608Z,15304
2017-05-10T18:26:11.839Z,15444
2017-05-10T18:26:40.168Z,15780
2017-05-10T18:27:08.512Z,15912
2017-05-10T18:27:36.846Z,15900
2017-05-10T18:28:05.087Z,15896
2017-05-10T18:28:33.243Z,15868
2017-05-10T18:29:01.252Z,15852
2017-05-10T18:29:29.520Z,15708
2017-05-10T18:29:58.034Z,16084
2017-05-10T18:30:26.439Z,17408
2017-05-10T18:30:54.876Z,23904
2017-05-10T18:31:23.101Z,19104
2017-05-10T18:31:51.475Z,16696
2017-05-10T18:32:19.672Z,16364
2017-05-10T18:32:47.865Z,16288
2017-05-10T18:33:15.973Z,16304
2017-05-10T18:33:44.173Z,16372
2017-05-10T18:34:12.579Z,16456
2017-05-10T18:34:40.833Z,16584
2017-05-10T18:35:09.206Z,16752
2017-05-10T18:35:37.538Z,16836
2017-05-10T18:36:05.719Z,17120
2017-05-10T18:36:33.821Z,17152
2017-05-10T18:37:02.046Z,17216
2017-05-10T18:37:30.063Z,17376
2017-05-10T18:37:58.067Z,17440
2017-05-10T18:38:26.342Z,17504
2017-05-10T18:38:54.601Z,17472
2017-05-10T18:39:22.843Z,17504
2017-05-10T18:39:50.996Z,17664
2017-05-10T18:40:19.364Z,18016
2017-05-10T18:40:47.678Z,18016
2017-05-10T18:41:15.879Z,17856
2017-05-10T18:41:44.038Z,17824
2017-05-10T18:42:12.180Z,17760
2017-05-10T18:42:40.413Z,17664
2017-05-10T18:43:08.691Z,17920
2017-05-10T18:43:36.830Z,18400
2017-05-10T18:44:05.116Z,21312
2017-05-10T18:44:33.359Z,21728
2017-05-10T18:45:01.646Z,18912
2017-05-10T18:45:29.995Z,17696
2017-05-10T18:45:58.290Z,17568
2017-05-10T18:46:26.602Z,17600
2017-05-10T18:46:54.940Z,17536
2017-05-10T18:47:23.252Z,24192
2017-05-10T18:47:51.419Z,19456
2017-05-10T18:48:19.794Z,24832
2017-05-10T18:48:48.080Z,29792
2017-05-10T18:49:16.508Z,27776
2017-05-10T18:49:44.676Z,29888
2017-05-10T18:50:12.871Z,29952
2017-05-10T18:50:41.439Z,30144
2017-05-10T18:51:09.844Z,30336
2017-05-10T18:51:38.013Z,29920
2017-05-10T18:52:06.300Z,29696
2017-05-10T18:52:34.609Z,30496
2017-05-10T18:53:02.739Z,30464
2017-05-10T18:53:31.299Z,30464
2017-05-10T18:53:59.895Z,28512
2017-05-10T18:54:28.142Z,26720
2017-05-10T18:54:56.384Z,14948
2017-05-10T18:55:24.805Z,14160
2017-05-10T18:55:53.162Z,13788
2017-05-10T18:56:21.376Z,13680
2017-05-10T18:56:49.567Z,15392
2017-05-10T18:57:17.901Z,12896
2017-05-10T18:57:46.211Z,12616
2017-05-10T18:58:14.483Z,12480
2017-05-10T18:58:42.818Z,12356
2017-05-10T18:59:11.134Z,12252
2017-05-10T18:59:39.388Z,12112
2017-05-10T19:00:07.566Z,11880
2017-05-10T19:00:35.902Z,11420
2017-05-10T19:01:04.109Z,11428
2017-05-10T19:01:32.399Z,11788
2017-05-10T19:02:00.688Z,11928
2017-05-10T19:02:28.832Z,11832
2017-05-10T19:02:57.084Z,11664
2017-05-10T19:03:25.314Z,11468
2017-05-10T19:03:53.408Z,11280
2017-05-10T19:04:21.678Z,11076
2017-05-10T19:04:50.034Z,10864
2017-05-10T19:05:18.271Z,10736
2017-05-10T19:05:46.567Z,10632
2017-05-10T19:06:14.814Z,10508
2017-05-10T19:06:43.099Z,10500
2017-05-10T19:07:11.324Z,10372
2017-05-10T19:07:39.571Z,10292
2017-05-10T19:08:07.675Z,10232
2017-05-10T19:08:35.887Z,10120
2017-05-10T19:09:04.243Z,9996
2017-05-10T19:09:32.481Z,9832
2017-05-10T19:10:00.715Z,9688
2017-05-10T19:10:29.033Z,9528
2017-05-10T19:10:57.320Z,9332
2017-05-10T19:11:25.568Z,9176
2017-05-10T19:11:53.776Z,9052
2017-05-10T19:12:21.912Z,8928
2017-05-10T19:12:50.110Z,8752
2017-05-10T19:13:18.363Z,8568
2017-05-10T19:13:46.633Z,8404
2017-05-10T19:14:14.885Z,8264
2017-05-10T19:14:43.152Z,8192
2017-05-10T19:15:11.390Z,8212
2017-05-10T19:15:39.549Z,8768
2017-05-10T19:16:07.809Z,8232
2017-05-10T19:16:36.051Z,8168
2017-05-10T19:17:04.384Z,8152
2017-05-10T19:17:32.532Z,8148
2017-05-10T19:18:00.740Z,8112
2017-05-10T19:18:29.064Z,8040
2017-05-10T19:18:57.238Z,7960
2017-05-10T19:19:25.651Z,7900
2017-05-10T19:19:53.932Z,7812
2017-05-10T19:20:22.117Z,7696
2017-05-10T19:20:50.443Z,7572
2017-05-10T19:21:18.543Z,7460
2017-05-10T19:21:46.799Z,7320
2017-05-10T19:22:15.008Z,7184
2017-05-10T19:22:43.105Z,7008
2017-05-10T19:23:11.210Z,6828
2017-05-10T19:23:39.484Z,6676
2017-05-10T19:24:07.745Z,6516
2017-05-10T19:24:36.071Z,6348
2017-05-10T19:25:04.394Z,6196
2017-05-10T19:25:32.520Z,6052
2017-05-10T19:26:00.852Z,5900
2017-05-10T19:26:29.037Z,5780
2017-05-10T19:26:57.319Z,5688
2017-05-10T19:27:25.629Z,5576
2017-05-10T19:27:53.891Z,5460
2017-05-10T19:28:22.157Z,5352
2017-05-10T19:28:50.453Z,5256
2017-05-10T19:29:18.785Z,5156
2017-05-10T19:29:47.063Z,5040
2017-05-10T19:30:15.252Z,4864
2017-05-10T19:30:43.578Z,4652
2017-05-10T19:31:11.928Z,4688
2017-05-10T19:31:40.091Z,4828
2017-05-10T19:32:08.185Z,4840
2017-05-10T19:32:36.718Z,4824
2017-05-10T19:33:05.048Z,4792
2017-05-10T19:33:33.326Z,4704
2017-05-10T19:34:01.506Z,4608
2017-05-10T19:34:29.691Z,4544
2017-05-10T19:34:57.919Z,4520
2017-05-10T19:35:26.176Z,4516
2017-05-10T19:35:54.426Z,4536
2017-05-10T19:36:22.761Z,4576
2017-05-10T19:36:50.945Z,4604
2017-05-10T19:37:19.283Z,4620
2017-05-10T19:37:47.408Z,4608
2017-05-10T19:38:15.602Z,4588
2017-05-10T19:38:43.900Z,4548
2017-05-10T19:39:12.049Z,4512
2017-05-10T19:39:40.129Z,4444
2017-05-10T19:40:08.421Z,4396
2017-05-10T19:40:36.900Z,4344
2017-05-10T19:41:05.244Z,4292
2017-05-10T19:41:33.664Z,4224
2017-05-10T19:42:02.185Z,4128
2017-05-10T19:42:30.705Z,4024
2017-05-10T19:42:59.112Z,3928
2017-05-10T19:43:27.461Z,3848
2017-05-10T19:43:55.927Z,3764
2017-05-10T19:44:24.335Z,3684
2017-05-10T19:44:52.957Z,3604
2017-05-10T19:45:21.555Z,3512
2017-05-10T19:45:49.827Z,3408
2017-05-10T19:46:18.134Z,3368
2017-05-10T19:46:46.433Z,3380
2017-05-10T19:47:14.647Z,3372
2017-05-10T19:47:42.872Z,3332
2017-05-10T19:48:11.206Z,3304
2017-05-10T19:48:39.492Z,3304
2017-05-10T19:49:07.765Z,3300
2017-05-10T19:49:35.934Z,3296
2017-05-10T19:50:04.267Z,3292
2017-05-10T19:50:32.467Z,3312
2017-05-10T19:51:00.669Z,3336
2017-05-10T19:51:28.961Z,3376
2017-05-10T19:51:57.187Z,3356
2017-05-10T19:52:25.254Z,3340
2017-05-10T19:52:53.353Z,3356
2017-05-10T19:53:21.639Z,3408
2017-05-10T19:53:49.819Z,3444
2017-05-10T19:54:17.988Z,3476
2017-05-10T19:54:46.164Z,3472
2017-05-10T19:55:14.465Z,3460
2017-05-10T19:55:42.753Z,3408
2017-05-10T19:56:10.885Z,3332
2017-05-10T19:56:39.397Z,3212
2017-05-10T19:57:07.522Z,3044
2017-05-10T19:57:35.846Z,2924
2017-05-10T19:58:04.037Z,2924
2017-05-10T19:58:32.337Z,2928
2017-05-10T19:59:00.632Z,2900
2017-05-10T19:59:28.780Z,2844
2017-05-10T19:59:57.033Z,2776
2017-05-10T20:00:25.269Z,2664
2017-05-10T20:00:53.444Z,2548
2017-05-10T20:01:21.666Z,2424
2017-05-10T20:01:49.840Z,2312
2017-05-10T20:02:17.989Z,2208
2017-05-10T20:02:46.118Z,2104
2017-05-10T20:03:14.378Z,2000
2017-05-10T20:03:42.623Z,1912
2017-05-10T20:04:10.840Z,1808
2017-05-10T20:04:39.059Z,1720
2017-05-10T20:05:07.157Z,1644
2017-05-10T20:05:35.345Z,1552
2017-05-10T20:06:03.621Z,1472
2017-05-10T20:06:32.179Z,1412
2017-05-10T20:07:00.339Z,1364
2017-05-10T20:07:28.616Z,1316
2017-05-10T20:07:56.868Z,1268
2017-05-10T20:08:25.049Z,1224
2017-05-10T20:08:53.334Z,1160
2017-05-10T20:09:21.520Z,1096
2017-05-10T20:09:49.653Z,1056
2017-05-10T20:10:17.961Z,1032
2017-05-10T20:10:46.112Z,1032
2017-05-10T20:11:14.395Z,1048
2017-05-10T20:11:42.531Z,1060
2017-05-10T20:12:10.560Z,1084
2017-05-10T20:12:38.743Z,1104
2017-05-10T20:13:06.886Z,1120
2017-05-10T20:13:35.164Z,1136
2017-05-10T20:14:03.262Z,1152
2017-05-10T20:14:31.394Z,1152
2017-05-10T20:14:59.674Z,1144
2017-05-10T20:15:27.934Z,1132
2017-05-10T20:15:55.980Z,1128
2017-05-10T20:16:24.155Z,1104
2017-05-10T20:16:52.434Z,1064
2017-05-10T20:17:20.624Z,1024
2017-05-10T20:17:48.805Z,1000
2017-05-10T20:18:16.881Z,988
2017-05-10T20:18:45.061Z,984
2017-05-10T20:19:13.317Z,964
2017-05-10T20:19:41.497Z,936
2017-05-10T20:20:09.816Z,892
2017-05-10T20:20:38.078Z,852
2017-05-10T20:21:06.352Z,816
2017-05-10T20:21:34.510Z,792
2017-05-10T20:22:02.735Z,780
2017-05-10T20:22:31.017Z,772
2017-05-10T20:22:59.102Z,772
2017-05-10T20:23:27.408Z,744
2017-05-10T20:23:55.680Z,720
2017-05-10T20:24:23.986Z,708
2017-05-10T20:24:52.227Z,696
2017-05-10T20:25:20.406Z,704
2017-05-10T20:25:48.664Z,692
2017-05-10T20:26:16.922Z,676
2017-05-10T20:26:45.211Z,656
2017-05-10T20:27:13.476Z,620
2017-05-10T20:27:41.668Z,588
2017-05-10T20:28:09.898Z,568
2017-05-10T20:28:38.032Z,548
2017-05-10T20:29:06.203Z,528
2017-05-10T20:29:34.495Z,504
2017-05-10T20:30:02.705Z,484
2017-05-10T20:30:30.987Z,460
2017-05-10T20:30:59.282Z,436
2017-05-10T20:31:27.346Z,416
2017-05-10T20:31:55.840Z,392
2017-05-10T20:32:24.530Z,372
2017-05-10T20:32:53.044Z,352
2017-05-10T20:33:21.488Z,336
2017-05-10T20:33:49.936Z,320
2017-05-10T20:34:18.577Z,300
2017-05-10T20:34:47.280Z,284
2017-05-10T20:35:15.948Z,264
2017-05-10T20:35:44.384Z,248
2017-05-10T20:36:12.500Z,232
2017-05-10T20:36:40.810Z,216
2017-05-10T20:37:09.161Z,200
2017-05-10T20:37:37.404Z,184
2017-05-10T20:38:05.662Z,172
2017-05-10T20:38:34.237Z,156
2017-05-10T20:39:02.886Z,144
2017-05-10T20:39:31.265Z,132
2017-05-10T20:39:59.868Z,120
2017-05-10T20:40:28.482Z,108
2017-05-10T20:40:56.914Z,100
2017-05-10T20:41:25.449Z,88
2017-05-10T20:41:53.763Z,84
2017-05-10T20:42:22.161Z,76
2017-05-10T20:42:50.394Z,68
2017-05-10T20:43:18.654Z,60
2017-05-10T20:43:46.915Z,56
2017-05-10T20:44:15.111Z,52
2017-05-10T20:44:43.388Z,44
2017-05-10T20:45:11.554Z,40
2017-05-10T20:45:39.744Z,40
2017-05-10T20:46:07.900Z,32
2017-05-10T20:46:36.238Z,28
2017-05-10T20:47:04.551Z,28
2017-05-10T20:47:32.762Z,24
2017-05-10T20:48:01.052Z,20
2017-05-10T20:48:29.331Z,20
2017-05-10T20:48:57.454Z,16
2017-05-10T20:49:25.706Z,16
2017-05-10T20:49:54.008Z,12
2017-05-10T20:50:22.164Z,12
2017-05-10T20:50:50.417Z,8
2017-05-10T20:51:18.666Z,12
2017-05-10T20:51:46.920Z,8
2017-05-10T20:52:15.012Z,8
2017-05-10T20:52:43.285Z,8
2017-05-10T20:53:11.544Z,4
2017-05-10T20:53:39.784Z,8
2017-05-10T20:54:08.160Z,4
2017-05-10T20:54:36.440Z,4
2017-05-10T20:55:04.639Z,4
2017-05-10T20:55:32.932Z,4
2017-05-10T20:56:01.153Z,4
2017-05-10T20:56:29.448Z,4
2017-05-10T20:56:57.652Z,0
2017-05-10T20:57:25.930Z,0
2017-05-10T20:57:54.196Z,4
2017-05-10T20:58:22.445Z,4
2017-05-10T20:58:50.623Z,4
2017-05-10T20:59:18.755Z,0
2017-05-10T20:59:47.280Z,0
2017-05-10T21:00:15.786Z,0
2017-05-10T21:00:44.351Z,0
2017-05-10T21:01:12.927Z,0
2017-05-10T21:01:41.600Z,0
2017-05-10T21:02:10.161Z,0
2017-05-10T21:02:38.853Z,0
2017-05-10T21:03:07.144Z,0
2017-05-10T21:03:35.364Z,0
2017-05-10T21:04:03.644Z,0
2017-05-10T21:04:31.936Z,0
2017-05-10T21:05:00.106Z,0
2017-05-10T21:05:28.393Z,0
2017-05-10T21:05:56.598Z,0
2017-05-10T21:06:24.837Z,0
2017-05-10T21:06:53.074Z,0
2017-05-10T21:07:21.255Z,0
2017-05-10T21:07:49.434Z,0
2017-05-10T21:08:17.592Z,0
2017-05-10T21:08:45.766Z,0
2017-05-10T21:09:13.944Z,0
2017-05-10T21:09:42.093Z,0
2017-05-10T21:10:10.148Z,0
2017-05-10T21:10:38.370Z,0
2017-05-10T21:11:06.547Z,0
2017-05-10T21:11:34.752Z,0
2017-05-10T21:12:03.051Z,0
2017-05-10T21:12:31.549Z,0
2017-05-10T21:12:59.699Z,0
2017-05-10T21:13:27.969Z,0
2017-05-10T21:13:56.183Z,0
2017-05-10T21:14:24.127Z,0
2017-05-10T21:14:52.409Z,0
2017-05-10T21:15:20.687Z,0
2017-05-10T21:15:48.960Z,0
2017-05-10T21:16:17.179Z,0
2017-05-10T21:16:45.353Z,0
2017-05-10T21:17:13.597Z,0
2017-05-10T21:17:41.986Z,0
2017-05-10T21:18:10.236Z,0
2017-05-10T21:18:38.384Z,0
2017-05-10T21:19:06.666Z,0
2017-05-10T21:19:34.784Z,0
2017-05-10T21:20:03.022Z,0
2017-05-10T21:20:31.163Z,0
2017-05-10T21:20:59.316Z,0
2017-05-10T21:21:27.504Z,0
2017-05-10T21:21:55.724Z,0
2017-05-10T21:22:23.958Z,0
2017-05-10T21:22:52.120Z,0
2017-05-10T21:23:20.288Z,0
2017-05-10T21:23:48.626Z,0
2017-05-10T21:24:16.850Z,0
2017-05-10T21:24:45.126Z,0
2017-05-10T21:25:13.338Z,0
2017-05-10T21:25:41.608Z,0
2017-05-10T21:26:09.908Z,0
2017-05-10T21:26:38.042Z,0
2017-05-10T21:27:06.220Z,0
2017-05-10T21:27:34.513Z,0
2017-05-10T21:28:02.865Z,0
2017-05-10T21:28:31.155Z,0
2017-05-10T21:28:59.350Z,0
2017-05-10T21:29:27.580Z,0
2017-05-10T21:29:55.886Z,0
2017-05-10T21:30:24.119Z,0
2017-05-10T21:30:52.124Z,0
2017-05-10T21:31:20.344Z,0
2017-05-10T21:31:48.515Z,0
2017-05-10T21:32:16.761Z,0
2017-05-10T21:32:45.030Z,0
2017-05-10T21:33:13.249Z,0
2017-05-10T21:33:41.402Z,0
2017-05-10T21:34:09.636Z,0
2017-05-10T21:34:37.812Z,0
2017-05-10T21:35:05.982Z,0
2017-05-10T21:35:34.149Z,0
2017-05-10T21:36:02.203Z,0
2017-05-10T21:36:30.400Z,0
2017-05-10T21:36:58.706Z,0
2017-05-10T21:37:26.923Z,0
2017-05-10T21:37:55.382Z,0
2017-05-10T21:38:23.599Z,0
2017-05-10T21:38:51.893Z,0
2017-05-10T21:39:20.194Z,0
2017-05-10T21:39:48.430Z,0
2017-05-10T21:40:16.640Z,0
2017-05-10T21:40:44.918Z,0
2017-05-10T21:41:13.142Z,0
2017-05-10T21:41:41.300Z,0
2017-05-10T21:42:09.473Z,0
2017-05-10T21:42:37.781Z,0
2017-05-10T21:43:05.975Z,0
2017-05-10T21:43:34.241Z,0
2017-05-10T21:44:02.400Z,0
2017-05-10T21:44:30.763Z,0
2017-05-10T21:44:58.879Z,0
2017-05-10T21:45:26.988Z,0
2017-05-10T21:45:55.086Z,0
2017-05-10T21:46:23.348Z,0
2017-05-10T21:46:51.582Z,0
2017-05-10T21:47:19.749Z,0
2017-05-10T21:47:48.001Z,0
2017-05-10T21:48:16.332Z,0
2017-05-10T21:48:44.227Z,0
2017-05-10T21:49:12.487Z,0
2017-05-10T21:49:40.692Z,0
2017-05-10T21:50:08.943Z,0
2017-05-10T21:50:37.181Z,0
2017-05-10T21:51:05.169Z,0
2017-05-10T21:51:33.400Z,0
2017-05-10T21:52:01.687Z,0
2017-05-10T21:52:29.970Z,0
2017-05-10T21:52:58.216Z,0
2017-05-10T21:53:26.494Z,0
2017-05-10T21:53:54.740Z,0
2017-05-10T21:54:22.895Z,0
2017-05-10T21:54:51.011Z,0
2017-05-10T21:55:19.291Z,0
2017-05-10T21:55:47.532Z,0
2017-05-10T21:56:15.774Z,0
2017-05-10T21:56:44.059Z,0
2017-05-10T21:57:12.296Z,0
2017-05-10T21:57:40.492Z,0
2017-05-10T21:58:08.830Z,0
2017-05-10T21:58:37.030Z,0
2017-05-10T21:59:05.349Z,0
2017-05-10T21:59:33.369Z,0
2017-05-10T22:00:01.627Z,0
2017-05-10T22:00:29.857Z,0
2017-05-10T22:00:58.010Z,0
2017-05-10T22:01:26.167Z,0
2017-05-10T22:01:54.456Z,0
2017-05-10T22:02:22.503Z,0
2017-05-10T22:02:50.781Z,0
2017-05-10T22:03:19.052Z,0
2017-05-10T22:03:47.188Z,0
2017-05-10T22:04:15.447Z,0
2017-05-10T22:04:43.704Z,0
2017-05-10T22:05:11.977Z,0
2017-05-10T22:05:40.169Z,0
2017-05-10T22:06:08.424Z,0
2017-05-10T22:06:36.507Z,0
2017-05-10T22:07:04.749Z,0
2017-05-10T22:07:32.947Z,0
2017-05-10T22:08:01.109Z,0
2017-05-10T22:08:29.497Z,0
2017-05-10T22:08:57.751Z,0
2017-05-10T22:09:25.967Z,0
2017-05-10T22:09:54.167Z,0
2017-05-10T22:10:22.527Z,0
2017-05-10T22:10:50.690Z,0
2017-05-10T22:11:18.836Z,0
2017-05-10T22:11:47.124Z,0
2017-05-10T22:12:15.335Z,0
2017-05-10T22:12:43.620Z,0
2017-05-10T22:13:11.884Z,0
2017-05-10T22:13:40.218Z,0
2017-05-10T22:14:08.397Z,0
2017-05-10T22:14:36.536Z,0
2017-05-10T22:15:04.775Z,0
2017-05-10T22:15:33.075Z,0
2017-05-10T22:16:01.254Z,0
2017-05-10T22:16:29.414Z,0
2017-05-10T22:16:57.608Z,0
2017-05-10T22:17:25.946Z,0
2017-05-10T22:17:54.223Z,0
2017-05-10T22:18:22.420Z,0
2017-05-10T22:18:50.637Z,0
2017-05-10T22:19:18.809Z,0
2017-05-10T22:19:47.097Z,0
2017-05-10T22:20:15.287Z,0
2017-05-10T22:20:43.437Z,0
2017-05-10T22:21:11.732Z,0
2017-05-10T22:21:39.917Z,0
2017-05-10T22:22:08.182Z,0
2017-05-10T22:22:36.363Z,0
2017-05-10T22:23:04.454Z,0
2017-05-10T22:23:32.811Z,0
2017-05-10T22:24:01.147Z,0
2017-05-10T22:24:29.352Z,0
2017-05-10T22:24:57.589Z,0
2017-05-10T22:25:25.752Z,0
2017-05-10T22:25:53.854Z,0
2017-05-10T22:26:22.124Z,0
2017-05-10T22:26:50.415Z,0
2017-05-10T22:27:18.573Z,0
2017-05-10T22:27:46.823Z,0
2017-05-10T22:28:15.009Z,0
2017-05-10T22:28:43.391Z,0
2017-05-10T22:29:11.587Z,0
2017-05-10T22:29:39.733Z,0
2017-05-10T22:30:08.049Z,0
2017-05-10T22:30:36.134Z,0
2017-05-10T22:31:04.404Z,0
2017-05-10T22:31:32.656Z,0
2017-05-10T22:32:00.846Z,0
2017-05-10T22:32:29.151Z,0
2017-05-10T22:32:57.454Z,0
2017-05-10T22:33:25.638Z,0
2017-05-10T22:33:54.004Z,0
2017-05-10T22:34:22.218Z,0
2017-05-10T22:34:50.504Z,0
2017-05-10T22:35:18.733Z,0
2017-05-10T22:35:46.928Z,0
2017-05-10T22:36:15.134Z,0
2017-05-10T22:36:43.428Z,0
2017-05-10T22:37:11.738Z,0
2017-05-10T22:37:39.958Z,0
2017-05-10T22:38:08.199Z,0
2017-05-10T22:38:36.423Z,0
2017-05-10T22:39:04.781Z,0
2017-05-10T22:39:33.032Z,0
2017-05-10T22:40:00.967Z,0
2017-05-10T22:40:29.138Z,0
2017-05-10T22:40:57.136Z,0
2017-05-10T22:41:25.401Z,0
2017-05-10T22:41:53.590Z,0
2017-05-10T22:42:21.830Z,0
2017-05-10T22:42:49.999Z,0
2017-05-10T22:43:18.242Z,0
2017-05-10T22:43:46.292Z,0
2017-05-10T22:44:14.642Z,0
2017-05-10T22:44:42.896Z,0
2017-05-10T22:45:11.148Z,0
2017-05-10T22:45:39.227Z,0
2017-05-10T22:46:07.428Z,0
2017-05-10T22:46:35.610Z,0
2017-05-10T22:47:03.815Z,0
2017-05-10T22:47:32.012Z,0
2017-05-10T22:47:59.977Z,0
2017-05-10T22:48:28.142Z,0
2017-05-10T22:48:56.221Z,0
2017-05-10T22:49:24.556Z,0
2017-05-10T22:49:52.714Z,0
2017-05-10T22:50:21.015Z,0
2017-05-10T22:50:49.357Z,0
2017-05-10T22:51:17.631Z,0
2017-05-10T22:51:45.867Z,0
2017-05-10T22:52:13.951Z,0
2017-05-10T22:52:42.206Z,0
2017-05-10T22:53:10.431Z,0
2017-05-10T22:53:38.715Z,0
2017-05-10T22:54:06.767Z,0
2017-05-10T22:54:34.949Z,0
2017-05-10T22:55:03.134Z,0
2017-05-10T22:55:31.366Z,0
2017-05-10T22:55:59.533Z,0
2017-05-10T22:56:27.767Z,0
2017-05-10T22:56:55.821Z,0
2017-05-10T22:57:23.748Z,0
2017-05-10T22:57:52.010Z,0
2017-05-10T22:58:20.254Z,0
2017-05-10T22:58:48.499Z,0
2017-05-10T22:59:16.902Z,0
2017-05-10T22:59:45.064Z,0
2017-05-10T23:00:13.238Z,0
2017-05-10T23:00:41.419Z,0
2017-05-10T23:01:09.720Z,0
2017-05-10T23:01:37.772Z,0
2017-05-10T23:02:05.854Z,0
2017-05-10T23:02:33.950Z,0
2017-05-10T23:03:02.236Z,0
2017-05-10T23:03:30.410Z,0
2017-05-10T23:03:58.536Z,0
2017-05-10T23:04:26.668Z,0
2017-05-10T23:04:54.786Z,0
2017-05-10T23:05:22.985Z,0
2017-05-10T23:05:51.354Z,0
2017-05-10T23:06:19.672Z,0
2017-05-10T23:06:47.830Z,0
2017-05-10T23:07:16.144Z,0
2017-05-10T23:07:44.333Z,0
2017-05-10T23:08:12.520Z,0
2017-05-10T23:08:40.625Z,0
2017-05-10T23:09:08.845Z,0
2017-05-10T23:09:37.270Z,0
2017-05-10T23:10:05.547Z,0
2017-05-10T23:10:33.823Z,0
2017-05-10T23:11:02.011Z,0
2017-05-10T23:11:30.277Z,0
2017-05-10T23:11:58.358Z,0
2017-05-10T23:12:26.598Z,0
2017-05-10T23:12:54.822Z,0
2017-05-10T23:13:23.069Z,0
2017-05-10T23:13:51.226Z,0
2017-05-10T23:14:19.509Z,0
2017-05-10T23:14:47.773Z,0
2017-05-10T23:15:16.070Z,0
2017-05-10T23:15:44.085Z,0
2017-05-10T23:16:12.370Z,0
2017-05-10T23:16:40.576Z,0
2017-05-10T23:17:08.849Z,0
2017-05-10T23:17:37.124Z,0
2017-05-10T23:18:05.373Z,0
2017-05-10T23:18:33.530Z,0
2017-05-10T23:19:01.719Z,0
2017-05-10T23:19:29.980Z,0
2017-05-10T23:19:58.163Z,0
2017-05-10T23:20:26.368Z,0
2017-05-10T23:20:54.433Z,0
2017-05-10T23:21:22.666Z,0
2017-05-10T23:21:50.932Z,0
2017-05-10T23:22:18.982Z,0
2017-05-10T23:22:47.147Z,0
2017-05-10T23:23:15.393Z,0
2017-05-10T23:23:43.643Z,0
2017-05-10T23:24:11.782Z,0
2017-05-10T23:24:40.373Z,0
2017-05-10T23:25:09.029Z,0
2017-05-10T23:25:37.718Z,0
2017-05-10T23:26:06.305Z,0
2017-05-10T23:26:34.847Z,0
2017-05-10T23:27:03.305Z,0
2017-05-10T23:27:31.967Z,0
2017-05-10T23:27:59.961Z,0
2017-05-10T23:28:28.201Z,0
2017-05-10T23:28:56.490Z,0
2017-05-10T23:29:24.744Z,0
2017-05-10T23:29:53.086Z,0
2017-05-10T23:30:21.363Z,0
2017-05-10T23:30:49.543Z,0
2017-05-10T23:31:17.733Z,0
2017-05-10T23:31:45.934Z,0
2017-05-10T23:32:14.207Z,0
2017-05-10T23:32:42.360Z,0
2017-05-10T23:33:10.500Z,0
2017-05-10T23:33:38.844Z,0
2017-05-10T23:34:07.081Z,0
2017-05-10T23:34:35.228Z,0
2017-05-10T23:35:03.422Z,0
2017-05-10T23:35:31.511Z,0
2017-05-10T23:35:59.517Z,0
2017-05-10T23:36:27.780Z,0
2017-05-10T23:36:55.928Z,0
2017-05-10T23:37:24.177Z,0
2017-05-10T23:37:52.345Z,0
2017-05-10T23:38:20.632Z,0
2017-05-10T23:38:48.957Z,0
2017-05-10T23:39:17.145Z,0
2017-05-10T23:39:45.409Z,0
2017-05-10T23:40:13.804Z,0
2017-05-10T23:40:41.929Z,0
2017-05-10T23:41:10.211Z,0
2017-05-10T23:41:38.384Z,0
2017-05-10T23:42:06.649Z,0
2017-05-10T23:42:34.936Z,0
2017-05-10T23:43:03.171Z,0
2017-05-10T23:43:31.390Z,0
2017-05-10T23:43:59.523Z,0
2017-05-10T23:44:27.653Z,0
2017-05-10T23:44:56.088Z,0
2017-05-10T23:45:24.337Z,0
2017-05-10T23:45:52.590Z,0
2017-05-10T23:46:20.812Z,0
2017-05-10T23:46:49.093Z,0
2017-05-10T23:47:17.285Z,0
2017-05-10T23:47:45.494Z,0
2017-05-10T23:48:13.744Z,0
2017-05-10T23:48:42.026Z,0
2017-05-10T23:49:10.341Z,0
2017-05-10T23:49:38.442Z,0
2017-05-10T23:50:06.854Z,0
2017-05-10T23:50:35.019Z,0
2017-05-10T23:51:03.271Z,0
2017-05-10T23:51:31.555Z,0
2017-05-10T23:51:59.860Z,0
2017-05-10T23:52:28.114Z,0
2017-05-10T23:52:56.077Z,0
2017-05-10T23:53:24.250Z,0
2017-05-10T23:53:52.537Z,0
2017-05-10T23:54:20.808Z,0
2017-05-10T23:54:49.112Z,0
2017-05-10T23:55:17.487Z,0
2017-05-10T23:55:45.710Z,0
2017-05-10T23:56:13.892Z,0
2017-05-10T23:56:42.102Z,0
2017-05-10T23:57:10.287Z,0
2017-05-10T23:57:38.272Z,0
2017-05-10T23:58:06.505Z,0
2017-05-10T23:58:34.649Z,0
2017-05-10T23:59:02.932Z,0
2017-05-10T23:59:31.102Z,0
2017-05-10T23:59:59.429Z,0
